Terminal Aerodrome Forecast
Issued by NWS Louisville, KY

Home | Current Version | Previous Version | Text Only | Print | Product List | Glossary On
Versions: 1 2 3 4 5 6 7 8 9 10 11 12 13 14 15 16 17
000
FTUS43 KLMK 271724
TAFBWG
TAF
KBWG 271724Z 2718/2818 19010KT P6SM SCT080 SCT250
     FM272000 19007KT P6SM -SHRA VCTS SCT035CB SCT080 BKN250
      TEMPO 2721/2723 3SM -TSRA BR BKN035CB
     FM272300 18006KT 3SM -TSRA BR BKN035CB
     FM280100 18006KT P6SM SCT050 BKN150
     FM280300 19005KT P6SM VCTS BKN035CB
     FM280600 21005KT P6SM BKN015=

USA.gov is the U.S. government's official web portal to all federal, state and local government web resources and services.